sensor_id;sensor_type;location;lat;lon;timestamp;pressure;altitude;pressure_sealevel;temperature;humidity
20825;BME280;10573;50.936;6.978;2023-04-07T00:00:21;101019.44;;;10.04;77.34
20825;BME280;10573;50.936;6.978;2023-04-07T00:02:46;101020.56;;;10.01;77.14
20825;BME280;10573;50.936;6.978;2023-04-07T00:05:13;101016.88;;;10.02;76.75
20825;BME280;10573;50.936;6.978;2023-04-07T00:07:39;101019.13;;;9.97;77.29
20825;BME280;10573;50.936;6.978;2023-04-07T00:10:05;101021.56;;;10.00;77.02
20825;BME280;10573;50.936;6.978;2023-04-07T00:12:31;101020.84;;;9.98;76.96
20825;BME280;10573;50.936;6.978;2023-04-07T00:14:56;101026.16;;;9.79;77.24
20825;BME280;10573;50.936;6.978;2023-04-07T00:17:22;101017.88;;;10.11;76.65
20825;BME280;10573;50.936;6.978;2023-04-07T00:19:47;101017.69;;;10.24;76.21
20825;BME280;10573;50.936;6.978;2023-04-07T00:22:12;101021.47;;;10.02;76.40
20825;BME280;10573;50.936;6.978;2023-04-07T00:24:38;101019.47;;;10.14;76.72
20825;BME280;10573;50.936;6.978;2023-04-07T00:27:03;101019.41;;;9.94;76.80
20825;BME280;10573;50.936;6.978;2023-04-07T00:29:29;101019.75;;;10.11;76.63
20825;BME280;10573;50.936;6.978;2023-04-07T00:31:54;101015.25;;;10.21;76.19
20825;BME280;10573;50.936;6.978;2023-04-07T00:34:20;101010.31;;;10.15;76.27
20825;BME280;10573;50.936;6.978;2023-04-07T00:36:45;101017.22;;;10.19;76.70
20825;BME280;10573;50.936;6.978;2023-04-07T00:39:18;101011.78;;;10.19;76.90
20825;BME280;10573;50.936;6.978;2023-04-07T00:41:44;101008.84;;;10.32;76.44
20825;BME280;10573;50.936;6.978;2023-04-07T00:44:11;101012.06;;;10.16;76.67
20825;BME280;10573;50.936;6.978;2023-04-07T00:46:36;101010.88;;;10.08;76.92
20825;BME280;10573;50.936;6.978;2023-04-07T00:49:02;101016.41;;;10.28;76.70
20825;BME280;10573;50.936;6.978;2023-04-07T00:51:27;101001.13;;;10.06;77.07
20825;BME280;10573;50.936;6.978;2023-04-07T00:53:53;100994.00;;;10.15;77.67
20825;BME280;10573;50.936;6.978;2023-04-07T00:56:19;101002.09;;;10.26;77.16
20825;BME280;10573;50.936;6.978;2023-04-07T00:58:44;100999.53;;;10.34;76.54
20825;BME280;10573;50.936;6.978;2023-04-07T01:01:14;100999.00;;;10.40;76.40
20825;BME280;10573;50.936;6.978;2023-04-07T01:04:07;100995.50;;;10.29;76.99
20825;BME280;10573;50.936;6.978;2023-04-07T01:06:37;101001.38;;;10.03;77.80
20825;BME280;10573;50.936;6.978;2023-04-07T01:09:08;101001.84;;;10.08;78.43
20825;BME280;10573;50.936;6.978;2023-04-07T01:12:10;101002.97;;;10.05;78.88
20825;BME280;10573;50.936;6.978;2023-04-07T01:14:41;100991.94;;;10.07;77.90
20825;BME280;10573;50.936;6.978;2023-04-07T01:17:11;100994.00;;;10.15;77.37
20825;BME280;10573;50.936;6.978;2023-04-07T01:19:42;100998.63;;;10.24;77.39
20825;BME280;10573;50.936;6.978;2023-04-07T01:22:13;100993.97;;;10.05;78.58
20825;BME280;10573;50.936;6.978;2023-04-07T01:27:20;100995.41;;;10.09;78.41
20825;BME280;10573;50.936;6.978;2023-04-07T01:29:46;100996.75;;;10.24;78.31
20825;BME280;10573;50.936;6.978;2023-04-07T01:32:13;100987.91;;;10.32;77.81
20825;BME280;10573;50.936;6.978;2023-04-07T01:34:40;100994.81;;;10.05;79.21
20825;BME280;10573;50.936;6.978;2023-04-07T01:37:06;100987.41;;;10.17;78.80
20825;BME280;10573;50.936;6.978;2023-04-07T01:39:33;100988.00;;;10.21;78.81
20825;BME280;10573;50.936;6.978;2023-04-07T01:42:00;101000.03;;;10.18;79.24
20825;BME280;10573;50.936;6.978;2023-04-07T01:44:29;100991.19;;;10.26;78.96
20825;BME280;10573;50.936;6.978;2023-04-07T01:46:57;100989.78;;;10.32;78.55
20825;BME280;10573;50.936;6.978;2023-04-07T01:49:24;100991.56;;;10.43;77.98
20825;BME280;10573;50.936;6.978;2023-04-07T01:51:51;100985.97;;;10.44;78.42
20825;BME280;10573;50.936;6.978;2023-04-07T01:54:17;100987.88;;;10.63;77.61
20825;BME280;10573;50.936;6.978;2023-04-07T01:56:43;100995.88;;;10.45;78.07
20825;BME280;10573;50.936;6.978;2023-04-07T01:59:09;100998.44;;;10.47;78.13
20825;BME280;10573;50.936;6.978;2023-04-07T02:01:35;100988.72;;;10.54;78.23
20825;BME280;10573;50.936;6.978;2023-04-07T02:06:41;100988.41;;;10.47;78.52
20825;BME280;10573;50.936;6.978;2023-04-07T02:09:10;100985.97;;;10.54;77.78
20825;BME280;10573;50.936;6.978;2023-04-07T02:11:36;100984.69;;;10.58;78.38
20825;BME280;10573;50.936;6.978;2023-04-07T02:14:03;100987.63;;;10.66;77.43
20825;BME280;10573;50.936;6.978;2023-04-07T02:16:31;100983.88;;;10.67;77.71
20825;BME280;10573;50.936;6.978;2023-04-07T02:18:57;100980.19;;;10.88;77.09
20825;BME280;10573;50.936;6.978;2023-04-07T02:21:24;100990.94;;;10.99;77.06
20825;BME280;10573;50.936;6.978;2023-04-07T02:23:50;100988.22;;;10.80;77.28
20825;BME280;10573;50.936;6.978;2023-04-07T02:26:15;100985.66;;;10.98;77.15
20825;BME280;10573;50.936;6.978;2023-04-07T02:28:41;100986.81;;;11.15;76.55
20825;BME280;10573;50.936;6.978;2023-04-07T02:31:06;100988.22;;;10.99;77.17
20825;BME280;10573;50.936;6.978;2023-04-07T02:33:32;100997.69;;;11.05;77.30
20825;BME280;10573;50.936;6.978;2023-04-07T02:35:57;100987.63;;;10.96;77.62
20825;BME280;10573;50.936;6.978;2023-04-07T02:38:22;100987.66;;;11.15;76.83
20825;BME280;10573;50.936;6.978;2023-04-07T02:40:48;100988.81;;;11.13;77.18
20825;BME280;10573;50.936;6.978;2023-04-07T02:43:13;100987.97;;;11.12;77.15
20825;BME280;10573;50.936;6.978;2023-04-07T02:45:39;100988.66;;;11.04;76.98
20825;BME280;10573;50.936;6.978;2023-04-07T02:48:04;100998.28;;;11.08;77.23
20825;BME280;10573;50.936;6.978;2023-04-07T02:50:30;100998.69;;;10.94;77.17
20825;BME280;10573;50.936;6.978;2023-04-07T02:52:55;100993.13;;;11.15;76.86
20825;BME280;10573;50.936;6.978;2023-04-07T02:55:21;100996.69;;;11.16;77.20
20825;BME280;10573;50.936;6.978;2023-04-07T02:57:46;101000.28;;;11.16;76.95
20825;BME280;10573;50.936;6.978;2023-04-07T03:00:13;100996.00;;;11.14;76.93
20825;BME280;10573;50.936;6.978;2023-04-07T03:02:38;100997.56;;;11.26;76.65
20825;BME280;10573;50.936;6.978;2023-04-07T03:05:04;100999.41;;;11.16;77.02
20825;BME280;10573;50.936;6.978;2023-04-07T03:07:29;100994.69;;;11.18;76.79
20825;BME280;10573;50.936;6.978;2023-04-07T03:09:56;100996.53;;;11.07;76.86
20825;BME280;10573;50.936;6.978;2023-04-07T03:12:21;100999.41;;;11.16;76.50
20825;BME280;10573;50.936;6.978;2023-04-07T03:14:47;101001.75;;;11.11;77.00
20825;BME280;10573;50.936;6.978;2023-04-07T03:17:12;100998.28;;;11.08;76.56
20825;BME280;10573;50.936;6.978;2023-04-07T03:19:37;100998.97;;;10.91;78.17
20825;BME280;10573;50.936;6.978;2023-04-07T03:22:03;100999.72;;;10.93;77.49
20825;BME280;10573;50.936;6.978;2023-04-07T03:24:28;100996.69;;;10.96;77.29
20825;BME280;10573;50.936;6.978;2023-04-07T03:26:54;100998.28;;;11.08;77.14
20825;BME280;10573;50.936;6.978;2023-04-07T03:29:20;100998.28;;;11.08;76.91
20825;BME280;10573;50.936;6.978;2023-04-07T03:31:45;101001.56;;;10.93;76.92
20825;BME280;10573;50.936;6.978;2023-04-07T03:34:11;100997.13;;;11.11;77.04
20825;BME280;10573;50.936;6.978;2023-04-07T03:36:36;100995.41;;;11.00;77.14
20825;BME280;10573;50.936;6.978;2023-04-07T03:39:01;100996.53;;;10.98;77.31
20825;BME280;10573;50.936;6.978;2023-04-07T03:41:27;100997.41;;;10.98;76.94
20825;BME280;10573;50.936;6.978;2023-04-07T03:43:52;101000.84;;;11.00;76.65
20825;BME280;10573;50.936;6.978;2023-04-07T03:46:19;100996.41;;;10.99;76.96
20825;BME280;10573;50.936;6.978;2023-04-07T03:48:45;100997.97;;;11.12;76.55
20825;BME280;10573;50.936;6.978;2023-04-07T03:51:11;101008.31;;;11.18;76.43
20825;BME280;10573;50.936;6.978;2023-04-07T03:53:37;101001.75;;;11.11;76.22
20825;BME280;10573;50.936;6.978;2023-04-07T03:56:03;101008.88;;;11.12;76.72
20825;BME280;10573;50.936;6.978;2023-04-07T03:58:28;101006.75;;;11.05;76.48
20825;BME280;10573;50.936;6.978;2023-04-07T04:00:54;101002.28;;;11.04;76.16
20825;BME280;10573;50.936;6.978;2023-04-07T04:03:19;101005.13;;;10.83;76.38
20825;BME280;10573;50.936;6.978;2023-04-07T04:05:45;101004.97;;;10.85;76.56
20825;BME280;10573;50.936;6.978;2023-04-07T04:08:10;101001.97;;;10.78;76.31
20825;BME280;10573;50.936;6.978;2023-04-07T04:10:36;101016.31;;;10.90;76.20
20825;BME280;10573;50.936;6.978;2023-04-07T04:13:01;101014.72;;;10.68;76.35
20825;BME280;10573;50.936;6.978;2023-04-07T04:15:31;101021.56;;;10.62;76.34
20825;BME280;10573;50.936;6.978;2023-04-07T04:17:56;101018.84;;;10.62;76.18
20825;BME280;10573;50.936;6.978;2023-04-07T04:20:21;101019.44;;;10.75;76.02
20825;BME280;10573;50.936;6.978;2023-04-07T04:22:47;101019.34;;;10.77;76.11
20825;BME280;10573;50.936;6.978;2023-04-07T04:25:12;101023.44;;;10.71;75.87
20825;BME280;10573;50.936;6.978;2023-04-07T04:27:37;101030.75;;;10.61;76.47
20825;BME280;10573;50.936;6.978;2023-04-07T04:30:03;101024.13;;;10.54;76.43
20825;BME280;10573;50.936;6.978;2023-04-07T04:32:29;101030.94;;;10.69;76.07
20825;BME280;10573;50.936;6.978;2023-04-07T04:34:54;101033.06;;;10.75;76.01
20825;BME280;10573;50.936;6.978;2023-04-07T04:37:20;101030.09;;;10.79;75.83
20825;BME280;10573;50.936;6.978;2023-04-07T04:39:45;101041.56;;;10.82;75.44
20825;BME280;10573;50.936;6.978;2023-04-07T04:42:11;101039.56;;;10.74;76.19
20825;BME280;10573;50.936;6.978;2023-04-07T04:44:36;101042.13;;;10.76;76.09
20825;BME280;10573;50.936;6.978;2023-04-07T04:47:01;101034.00;;;10.45;76.61
20825;BME280;10573;50.936;6.978;2023-04-07T04:49:27;101040.75;;;10.51;75.98
20825;BME280;10573;50.936;6.978;2023-04-07T04:51:52;101044.38;;;10.61;76.36
20825;BME280;10573;50.936;6.978;2023-04-07T04:54:18;101042.28;;;10.74;75.69
20825;BME280;10573;50.936;6.978;2023-04-07T04:56:43;101043.13;;;10.75;75.71
20825;BME280;10573;50.936;6.978;2023-04-07T04:59:09;101048.19;;;10.80;75.19
20825;BME280;10573;50.936;6.978;2023-04-07T05:01:35;101049.56;;;10.64;75.57
20825;BME280;10573;50.936;6.978;2023-04-07T05:04:00;101057.88;;;10.72;75.28
20825;BME280;10573;50.936;6.978;2023-04-07T05:06:26;101057.50;;;10.77;75.13
20825;BME280;10573;50.936;6.978;2023-04-07T05:08:52;101058.47;;;10.66;75.70
20825;BME280;10573;50.936;6.978;2023-04-07T05:11:18;101062.88;;;10.67;75.75
20825;BME280;10573;50.936;6.978;2023-04-07T05:13:43;101058.88;;;10.71;75.61
20825;BME280;10573;50.936;6.978;2023-04-07T05:16:08;101068.16;;;10.59;75.50
20825;BME280;10573;50.936;6.978;2023-04-07T05:18:34;101070.13;;;10.47;75.71
20825;BME280;10573;50.936;6.978;2023-04-07T05:20:59;101070.00;;;10.49;75.84
20825;BME280;10573;50.936;6.978;2023-04-07T05:23:26;101071.03;;;10.57;75.53
20825;BME280;10573;50.936;6.978;2023-04-07T05:25:51;101075.19;;;10.62;75.31
20825;BME280;10573;50.936;6.978;2023-04-07T05:28:17;101075.63;;;10.57;75.38
20825;BME280;10573;50.936;6.978;2023-04-07T05:30:43;101073.63;;;10.59;75.12
20825;BME280;10573;50.936;6.978;2023-04-07T05:33:08;101078.91;;;10.61;74.90
20825;BME280;10573;50.936;6.978;2023-04-07T05:35:34;101067.34;;;10.68;75.06
20825;BME280;10573;50.936;6.978;2023-04-07T05:37:59;101071.81;;;10.38;75.63
20825;BME280;10573;50.936;6.978;2023-04-07T05:40:24;101074.81;;;10.66;75.19
20825;BME280;10573;50.936;6.978;2023-04-07T05:42:50;101072.25;;;10.74;74.59
20825;BME280;10573;50.936;6.978;2023-04-07T05:45:15;101075.38;;;10.70;74.31
20825;BME280;10573;50.936;6.978;2023-04-07T05:47:41;101075.63;;;10.57;74.88
20825;BME280;10573;50.936;6.978;2023-04-07T05:50:07;101082.75;;;10.48;75.48
20825;BME280;10573;50.936;6.978;2023-04-07T05:52:32;101084.69;;;10.67;75.39
20825;BME280;10573;50.936;6.978;2023-04-07T05:54:58;101087.97;;;10.61;74.93
20825;BME280;10573;50.936;6.978;2023-04-07T05:57:24;101091.66;;;10.29;75.59
20825;BME280;10573;50.936;6.978;2023-04-07T05:59:51;101089.59;;;10.43;75.18
20825;BME280;10573;50.936;6.978;2023-04-07T06:02:16;101087.59;;;10.45;75.36
20825;BME280;10573;50.936;6.978;2023-04-07T06:04:42;101097.56;;;10.34;76.17
20825;BME280;10573;50.936;6.978;2023-04-07T06:07:07;101098.06;;;10.39;75.44
20825;BME280;10573;50.936;6.978;2023-04-07T06:09:33;101098.91;;;10.19;76.51
20825;BME280;10573;50.936;6.978;2023-04-07T06:11:58;101102.13;;;10.34;76.03
20825;BME280;10573;50.936;6.978;2023-04-07T06:14:25;101110.44;;;10.32;75.77
20825;BME280;10573;50.936;6.978;2023-04-07T06:16:50;101113.91;;;10.34;76.19
20825;BME280;10573;50.936;6.978;2023-04-07T06:19:16;101107.84;;;10.31;75.97
20825;BME280;10573;50.936;6.978;2023-04-07T06:21:41;101119.09;;;10.37;75.96
20825;BME280;10573;50.936;6.978;2023-04-07T06:24:07;101118.94;;;10.18;76.78
20825;BME280;10573;50.936;6.978;2023-04-07T06:26:33;101122.28;;;10.43;76.61
20825;BME280;10573;50.936;6.978;2023-04-07T06:28:58;101121.91;;;10.26;76.20
20825;BME280;10573;50.936;6.978;2023-04-07T06:31:24;101125.47;;;10.48;75.96
20825;BME280;10573;50.936;6.978;2023-04-07T06:33:50;101125.03;;;10.43;75.80
20825;BME280;10573;50.936;6.978;2023-04-07T06:36:16;101123.94;;;10.55;75.36
20825;BME280;10573;50.936;6.978;2023-04-07T06:38:41;101126.34;;;10.06;76.38
20825;BME280;10573;50.936;6.978;2023-04-07T06:41:07;101138.97;;;10.49;75.50
20825;BME280;10573;50.936;6.978;2023-04-07T06:43:36;101138.22;;;10.26;76.11
20825;BME280;10573;50.936;6.978;2023-04-07T06:46:01;101139.63;;;10.41;75.97
20825;BME280;10573;50.936;6.978;2023-04-07T06:48:26;101134.13;;;10.53;75.65
20825;BME280;10573;50.936;6.978;2023-04-07T06:50:52;101143.13;;;10.32;75.65
20825;BME280;10573;50.936;6.978;2023-04-07T06:53:17;101140.19;;;10.35;75.17
20825;BME280;10573;50.936;6.978;2023-04-07T06:55:43;101146.38;;;10.47;75.14
20825;BME280;10573;50.936;6.978;2023-04-07T06:58:08;101147.63;;;10.64;75.09
20825;BME280;10573;50.936;6.978;2023-04-07T07:00:35;101154.34;;;10.60;75.10
20825;BME280;10573;50.936;6.978;2023-04-07T07:03:01;101146.47;;;10.57;74.94
20825;BME280;10573;50.936;6.978;2023-04-07T07:05:26;101150.50;;;10.63;75.10
20825;BME280;10573;50.936;6.978;2023-04-07T07:07:52;101159.63;;;10.52;75.09
20825;BME280;10573;50.936;6.978;2023-04-07T07:10:18;101163.34;;;10.51;75.17
20825;BME280;10573;50.936;6.978;2023-04-07T07:12:44;101150.13;;;10.46;75.69
20825;BME280;10573;50.936;6.978;2023-04-07T07:15:10;101162.53;;;10.60;75.07
20825;BME280;10573;50.936;6.978;2023-04-07T07:17:35;101155.31;;;10.49;75.30
20825;BME280;10573;50.936;6.978;2023-04-07T07:20:01;101164.09;;;10.53;75.19
20825;BME280;10573;50.936;6.978;2023-04-07T07:22:26;101166.53;;;10.56;74.91
20825;BME280;10573;50.936;6.978;2023-04-07T07:24:52;101166.44;;;10.67;74.41
20825;BME280;10573;50.936;6.978;2023-04-07T07:27:17;101170.53;;;10.52;75.64
20825;BME280;10573;50.936;6.978;2023-04-07T07:29:42;101173.38;;;10.50;75.38
20825;BME280;10573;50.936;6.978;2023-04-07T07:32:08;101177.69;;;10.53;75.57
20825;BME280;10573;50.936;6.978;2023-04-07T07:34:33;101175.03;;;10.41;75.78
20825;BME280;10573;50.936;6.978;2023-04-07T07:36:59;101177.31;;;10.67;75.05
20825;BME280;10573;50.936;6.978;2023-04-07T07:39:25;101179.31;;;10.55;75.09
20825;BME280;10573;50.936;6.978;2023-04-07T07:41:50;101184.97;;;10.31;75.15
20825;BME280;10573;50.936;6.978;2023-04-07T07:44:16;101182.06;;;10.65;74.87
20825;BME280;10573;50.936;6.978;2023-04-07T07:46:44;101192.84;;;10.46;75.50
20825;BME280;10573;50.936;6.978;2023-04-07T07:49:10;101186.19;;;10.60;75.26
20825;BME280;10573;50.936;6.978;2023-04-07T07:51:35;101182.56;;;10.80;74.09
20825;BME280;10573;50.936;6.978;2023-04-07T07:54:00;101186.06;;;10.92;74.45
20825;BME280;10573;50.936;6.978;2023-04-07T07:56:26;101184.53;;;11.09;73.31
20825;BME280;10573;50.936;6.978;2023-04-07T07:58:51;101184.78;;;10.96;73.24
20825;BME280;10573;50.936;6.978;2023-04-07T08:01:17;101197.78;;;11.14;72.44
20825;BME280;10573;50.936;6.978;2023-04-07T08:03:42;101187.69;;;11.04;72.27
20825;BME280;10573;50.936;6.978;2023-04-07T08:06:07;101189.31;;;10.86;72.78
20825;BME280;10573;50.936;6.978;2023-04-07T08:08:34;101202.75;;;10.99;72.43
20825;BME280;10573;50.936;6.978;2023-04-07T08:10:59;101203.50;;;11.11;72.42
20825;BME280;10573;50.936;6.978;2023-04-07T08:13:25;101209.50;;;11.04;72.89
20825;BME280;10573;50.936;6.978;2023-04-07T08:15:50;101200.69;;;10.91;72.97
20825;BME280;10573;50.936;6.978;2023-04-07T08:18:16;101210.94;;;11.08;72.37
20825;BME280;10573;50.936;6.978;2023-04-07T08:20:41;101205.50;;;11.08;72.41
20825;BME280;10573;50.936;6.978;2023-04-07T08:23:07;101217.69;;;11.04;72.36
20825;BME280;10573;50.936;6.978;2023-04-07T08:25:33;101217.84;;;11.13;72.26
20825;BME280;10573;50.936;6.978;2023-04-07T08:27:59;101215.03;;;11.24;72.16
20825;BME280;10573;50.936;6.978;2023-04-07T08:30:24;101217.94;;;11.32;71.77
20825;BME280;10573;50.936;6.978;2023-04-07T08:32:51;101216.91;;;11.33;72.00
20825;BME280;10573;50.936;6.978;2023-04-07T08:35:16;101223.09;;;11.35;71.35
20825;BME280;10573;50.936;6.978;2023-04-07T08:37:41;101224.63;;;11.59;70.50
20825;BME280;10573;50.936;6.978;2023-04-07T08:40:09;101228.31;;;11.48;70.73
20825;BME280;10573;50.936;6.978;2023-04-07T08:42:40;101222.59;;;11.61;70.36
20825;BME280;10573;50.936;6.978;2023-04-07T08:45:06;101229.63;;;11.44;70.92
20825;BME280;10573;50.936;6.978;2023-04-07T08:47:34;101233.06;;;11.05;71.49
20825;BME280;10573;50.936;6.978;2023-04-07T08:50:01;101234.84;;;11.26;71.12
20825;BME280;10573;50.936;6.978;2023-04-07T08:52:45;101234.44;;;11.31;70.31
20825;BME280;10573;50.936;6.978;2023-04-07T08:55:11;101236.22;;;11.11;71.21
20825;BME280;10573;50.936;6.978;2023-04-07T08:57:37;101233.91;;;11.47;70.68
20825;BME280;10573;50.936;6.978;2023-04-07T09:00:03;101239.75;;;11.32;69.90
20825;BME280;10573;50.936;6.978;2023-04-07T09:02:36;101238.81;;;11.53;70.04
20825;BME280;10573;50.936;6.978;2023-04-07T09:05:03;101233.22;;;11.64;69.69
20825;BME280;10573;50.936;6.978;2023-04-07T09:07:30;101246.16;;;11.62;69.61
20825;BME280;10573;50.936;6.978;2023-04-07T09:09:57;101243.56;;;11.61;70.15
20825;BME280;10573;50.936;6.978;2023-04-07T09:12:22;101243.88;;;11.67;69.32
20825;BME280;10573;50.936;6.978;2023-04-07T09:14:48;101252.38;;;11.84;69.37
20825;BME280;10573;50.936;6.978;2023-04-07T09:17:13;101249.66;;;11.84;68.83
20825;BME280;10573;50.936;6.978;2023-04-07T09:19:38;101258.50;;;11.56;69.96
20825;BME280;10573;50.936;6.978;2023-04-07T09:22:04;101260.00;;;11.90;69.76
20825;BME280;10573;50.936;6.978;2023-04-07T09:24:29;101257.22;;;11.70;69.46
20825;BME280;10573;50.936;6.978;2023-04-07T09:27:18;101257.13;;;11.91;69.76
20825;BME280;10573;50.936;6.978;2023-04-07T09:29:46;101254.28;;;12.03;68.43
20825;BME280;10573;50.936;6.978;2023-04-07T09:32:11;101257.75;;;12.05;68.75
20825;BME280;10573;50.936;6.978;2023-04-07T09:34:45;101260.72;;;11.92;68.73
20825;BME280;10573;50.936;6.978;2023-04-07T09:37:20;101260.50;;;11.95;68.89
20825;BME280;10573;50.936;6.978;2023-04-07T09:39:50;101258.91;;;12.02;68.87
20825;BME280;10573;50.936;6.978;2023-04-07T09:42:16;101258.47;;;12.07;68.52
20825;BME280;10573;50.936;6.978;2023-04-07T09:44:42;101255.31;;;12.12;68.21
20825;BME280;10573;50.936;6.978;2023-04-07T09:47:08;101259.13;;;11.89;68.43
20825;BME280;10573;50.936;6.978;2023-04-07T09:49:47;101257.13;;;11.82;68.62
20825;BME280;10573;50.936;6.978;2023-04-07T09:52:13;101268.47;;;11.87;68.35
20825;BME280;10573;50.936;6.978;2023-04-07T09:54:40;101267.25;;;11.60;68.76
20825;BME280;10573;50.936;6.978;2023-04-07T09:57:07;101275.22;;;11.83;68.43
20825;BME280;10573;50.936;6.978;2023-04-07T09:59:36;101273.44;;;11.62;69.01
20825;BME280;10573;50.936;6.978;2023-04-07T10:02:02;101273.50;;;11.82;69.52
20825;BME280;10573;50.936;6.978;2023-04-07T10:04:28;101269.38;;;12.07;68.68
20825;BME280;10573;50.936;6.978;2023-04-07T10:06:54;101261.78;;;12.30;68.55
20825;BME280;10573;50.936;6.978;2023-04-07T10:09:25;101262.38;;;12.44;67.38
20825;BME280;10573;50.936;6.978;2023-04-07T10:11:52;101266.94;;;12.53;67.55
20825;BME280;10573;50.936;6.978;2023-04-07T10:14:19;101266.81;;;12.45;67.33
20825;BME280;10573;50.936;6.978;2023-04-07T10:16:46;101266.94;;;12.04;68.66
20825;BME280;10573;50.936;6.978;2023-04-07T10:19:13;101271.84;;;12.10;68.67
20825;BME280;10573;50.936;6.978;2023-04-07T10:21:40;101273.84;;;12.08;69.25
20825;BME280;10573;50.936;6.978;2023-04-07T10:27:13;101287.09;;;12.22;69.04
20825;BME280;10573;50.936;6.978;2023-04-07T10:29:42;101284.06;;;12.35;68.10
20825;BME280;10573;50.936;6.978;2023-04-07T10:32:09;101297.75;;;12.45;68.32
20825;BME280;10573;50.936;6.978;2023-04-07T10:37:18;101299.72;;;12.14;69.22
20825;BME280;10573;50.936;6.978;2023-04-07T10:39:45;101295.72;;;12.28;68.53
20825;BME280;10573;50.936;6.978;2023-04-07T10:45:02;101306.91;;;12.24;68.54
20825;BME280;10573;50.936;6.978;2023-04-07T10:47:28;101296.16;;;12.33;68.96
20825;BME280;10573;50.936;6.978;2023-04-07T10:50:19;101298.13;;;12.11;69.60
20825;BME280;10573;50.936;6.978;2023-04-07T10:52:46;101305.97;;;11.75;70.00
20825;BME280;10573;50.936;6.978;2023-04-07T11:03:22;101314.31;;;11.93;69.72
20825;BME280;10573;50.936;6.978;2023-04-07T11:05:49;101308.66;;;12.16;70.13
20825;BME280;10573;50.936;6.978;2023-04-07T11:08:15;101317.25;;;12.01;70.14
20825;BME280;10573;50.936;6.978;2023-04-07T11:10:57;101315.16;;;11.84;70.63
20825;BME280;10573;50.936;6.978;2023-04-07T11:13:22;101320.28;;;11.67;70.63
20825;BME280;10573;50.936;6.978;2023-04-07T11:15:49;101324.94;;;11.77;70.65
20825;BME280;10573;50.936;6.978;2023-04-07T11:18:19;101318.72;;;11.74;70.83
20825;BME280;10573;50.936;6.978;2023-04-07T11:20:50;101316.69;;;12.07;70.13
20825;BME280;10573;50.936;6.978;2023-04-07T11:23:18;101317.84;;;12.15;69.86
20825;BME280;10573;50.936;6.978;2023-04-07T11:25:46;101316.56;;;12.19;68.80
20825;BME280;10573;50.936;6.978;2023-04-07T11:28:12;101314.72;;;12.29;69.24
20825;BME280;10573;50.936;6.978;2023-04-07T11:30:44;101313.13;;;12.17;68.91
20825;BME280;10573;50.936;6.978;2023-04-07T11:33:14;101322.50;;;12.44;68.15
20825;BME280;10573;50.936;6.978;2023-04-07T11:38:13;101325.94;;;12.65;67.15
20825;BME280;10573;50.936;6.978;2023-04-07T11:40:38;101323.47;;;12.82;66.86
20825;BME280;10573;50.936;6.978;2023-04-07T11:45:45;101324.91;;;12.66;66.11
20825;BME280;10573;50.936;6.978;2023-04-07T11:48:30;101334.25;;;12.54;67.37
20825;BME280;10573;50.936;6.978;2023-04-07T11:50:56;101332.97;;;12.38;67.34
20825;BME280;10573;50.936;6.978;2023-04-07T11:53:29;101333.69;;;12.70;67.20
20825;BME280;10573;50.936;6.978;2023-04-07T11:58:25;101340.03;;;12.41;66.55
20825;BME280;10573;50.936;6.978;2023-04-07T12:00:55;101335.13;;;12.35;66.35
20825;BME280;10573;50.936;6.978;2023-04-07T12:03:21;101339.31;;;12.68;66.39
20825;BME280;10573;50.936;6.978;2023-04-07T12:05:47;101349.38;;;12.58;66.74
20825;BME280;10573;50.936;6.978;2023-04-07T12:08:13;101345.75;;;12.97;66.12
20825;BME280;10573;50.936;6.978;2023-04-07T12:10:40;101342.84;;;12.98;65.85
20825;BME280;10573;50.936;6.978;2023-04-07T12:13:06;101344.91;;;12.96;65.87
20825;BME280;10573;50.936;6.978;2023-04-07T12:15:33;101344.03;;;12.86;65.03
20825;BME280;10573;50.936;6.978;2023-04-07T12:17:58;101353.81;;;12.98;65.01
20825;BME280;10573;50.936;6.978;2023-04-07T12:20:24;101355.69;;;12.98;65.81
20825;BME280;10573;50.936;6.978;2023-04-07T12:22:49;101352.94;;;13.07;64.63
20825;BME280;10573;50.936;6.978;2023-04-07T12:25:15;101356.41;;;12.90;65.78
20825;BME280;10573;50.936;6.978;2023-04-07T12:27:40;101361.16;;;12.78;64.70
20825;BME280;10573;50.936;6.978;2023-04-07T12:30:06;101356.41;;;12.61;65.76
20825;BME280;10573;50.936;6.978;2023-04-07T12:32:32;101359.56;;;12.75;65.14
20825;BME280;10573;50.936;6.978;2023-04-07T12:34:58;101356.84;;;12.95;64.02
20825;BME280;10573;50.936;6.978;2023-04-07T12:37:23;101360.31;;;12.78;64.59
20825;BME280;10573;50.936;6.978;2023-04-07T12:39:48;101364.19;;;12.65;64.39
20825;BME280;10573;50.936;6.978;2023-04-07T12:42:15;101354.41;;;12.72;64.69
20825;BME280;10573;50.936;6.978;2023-04-07T12:44:41;101364.16;;;13.04;63.94
20825;BME280;10573;50.936;6.978;2023-04-07T12:47:06;101367.31;;;13.00;64.62
20825;BME280;10573;50.936;6.978;2023-04-07T12:49:32;101361.81;;;13.19;64.10
20825;BME280;10573;50.936;6.978;2023-04-07T12:51:57;101364.88;;;13.16;63.38
20825;BME280;10573;50.936;6.978;2023-04-07T12:54:23;101366.44;;;13.09;63.53
20825;BME280;10573;50.936;6.978;2023-04-07T12:56:48;101373.06;;;13.06;63.74
20825;BME280;10573;50.936;6.978;2023-04-07T12:59:14;101370.19;;;13.18;63.86
20825;BME280;10573;50.936;6.978;2023-04-07T13:01:40;101368.91;;;13.12;64.01
20825;BME280;10573;50.936;6.978;2023-04-07T13:04:05;101372.25;;;12.96;64.01
20825;BME280;10573;50.936;6.978;2023-04-07T13:06:31;101373.69;;;12.61;64.94
20825;BME280;10573;50.936;6.978;2023-04-07T13:08:56;101371.38;;;12.47;65.58
20825;BME280;10573;50.936;6.978;2023-04-07T13:11:22;101375.69;;;12.59;66.50
20825;BME280;10573;50.936;6.978;2023-04-07T13:13:47;101370.38;;;12.48;67.24
20825;BME280;10573;50.936;6.978;2023-04-07T13:16:13;101376.28;;;12.72;67.16